createdAt,value
2022-09-09T00:00:51.488Z,97033.84
2022-09-09T00:03:25.251Z,97031.38
2022-09-09T00:06:01.510Z,97031.56
2022-09-09T00:08:40.115Z,97034.03
2022-09-09T00:11:13.281Z,97028.88
2022-09-09T00:13:46.207Z,97027.22
2022-09-09T00:16:20.191Z,97019.22
2022-09-09T00:18:56.152Z,97012.22
2022-09-09T00:21:27.616Z,97008.72
2022-09-09T00:23:56.961Z,97002.53
2022-09-09T00:26:34.653Z,97000.91
2022-09-09T00:29:12.266Z,97003.56
2022-09-09T00:31:41.201Z,96993.91
2022-09-09T00:34:15.901Z,96989.56
2022-09-09T00:36:45.558Z,96990.59
2022-09-09T00:39:36.952Z,96999.44
2022-09-09T00:42:16.035Z,96999.63
2022-09-09T00:44:54.859Z,97000.44
2022-09-09T00:47:40.038Z,96994.47
2022-09-09T00:50:19.679Z,97002.66
2022-09-09T00:52:56.729Z,97001.00
2022-09-09T00:55:33.316Z,97016.03
2022-09-09T00:58:01.814Z,97001.16
2022-09-09T01:00:32.646Z,97009.19
2022-09-09T01:03:27.699Z,97007.53
2022-09-09T01:06:04.295Z,97002.94
2022-09-09T01:08:44.685Z,97010.13
2022-09-09T01:11:18.458Z,97003.13
2022-09-09T01:13:48.828Z,97016.88
2022-09-09T01:16:17.926Z,97016.69
2022-09-09T01:18:50.487Z,97018.34
2022-09-09T01:21:26.932Z,97013.00
2022-09-09T01:24:07.971Z,97019.16
2022-09-09T01:26:51.896Z,97005.16
2022-09-09T01:29:26.860Z,97012.16
2022-09-09T01:31:56.975Z,97002.50
2022-09-09T01:34:28.156Z,97002.69
2022-09-09T01:37:00.330Z,97007.19
2022-09-09T01:39:29.636Z,96997.34
2022-09-09T01:42:05.499Z,96999.19
2022-09-09T01:44:36.185Z,96999.75
2022-09-09T01:47:05.273Z,96993.78
2022-09-09T01:49:34.624Z,96999.75
2022-09-09T01:52:10.860Z,96996.25
2022-09-09T01:54:41.143Z,96992.75
2022-09-09T01:57:23.479Z,96995.44
2022-09-09T02:00:05.390Z,96997.28
2022-09-09T02:02:51.650Z,96984.94
2022-09-09T02:05:32.823Z,96986.78
2022-09-09T02:08:07.290Z,96989.44
2022-09-09T02:10:50.950Z,96992.31
2022-09-09T02:13:35.007Z,96980.78
2022-09-09T02:16:06.861Z,96987.16
2022-09-09T02:18:41.184Z,96995.34
2022-09-09T02:21:12.719Z,96997.84
2022-09-09T02:23:42.177Z,96988.34
2022-09-09T02:26:20.472Z,96994.72
2022-09-09T02:28:53.539Z,96996.38
2022-09-09T02:31:24.221Z,96992.88
2022-09-09T02:33:59.617Z,96986.88
2022-09-09T02:36:31.539Z,96980.72
2022-09-09T02:39:00.083Z,96973.72
2022-09-09T02:41:35.869Z,96976.41
2022-09-09T02:44:07.886Z,96977.41
2022-09-09T02:46:53.244Z,96964.25
2022-09-09T02:49:27.009Z,96964.25
2022-09-09T02:52:01.323Z,96966.28
2022-09-09T02:54:33.321Z,96968.94
2022-09-09T02:57:09.105Z,96973.47
2022-09-09T02:59:42.738Z,96963.78
2022-09-09T03:02:12.385Z,96967.47
2022-09-09T03:04:42.691Z,96968.31
2022-09-09T03:07:11.521Z,96976.50
2022-09-09T03:09:39.977Z,96969.50
2022-09-09T03:12:08.662Z,96969.50
2022-09-09T03:14:37.423Z,96969.69
2022-09-09T03:17:07.356Z,96974.22
2022-09-09T03:19:41.107Z,96976.88
2022-09-09T03:22:11.981Z,96968.22
2022-09-09T03:24:43.302Z,96979.75
2022-09-09T03:27:11.866Z,96978.09
2022-09-09T03:29:41.157Z,96980.13
2022-09-09T03:32:18.477Z,96977.44
2022-09-09T03:34:48.437Z,96974.59
2022-09-09T03:37:18.008Z,96972.09
2022-09-09T03:39:46.847Z,96973.94
2022-09-09T03:42:19.669Z,96972.28
2022-09-09T03:44:51.395Z,96981.31
2022-09-09T03:47:24.028Z,96980.50
2022-09-09T03:49:56.898Z,96987.88
2022-09-09T03:52:27.117Z,96989.53
2022-09-09T03:54:56.284Z,96988.72
2022-09-09T03:57:24.732Z,96983.56
2022-09-09T04:00:00.604Z,96979.25
2022-09-09T04:02:44.508Z,96979.25
2022-09-09T04:05:16.578Z,96978.41
2022-09-09T04:07:46.863Z,96981.28
2022-09-09T04:10:16.764Z,96977.78
2022-09-09T04:12:48.957Z,96974.28
2022-09-09T04:15:19.703Z,96981.44
2022-09-09T04:17:50.822Z,96975.28
2022-09-09T04:20:21.199Z,96976.31
2022-09-09T04:22:49.595Z,96973.81
2022-09-09T04:25:19.277Z,96972.81
2022-09-09T04:27:48.530Z,96970.13
2022-09-09T04:30:17.532Z,96977.50
2022-09-09T04:32:45.942Z,96971.16
2022-09-09T04:35:16.764Z,96961.47
2022-09-09T04:37:45.937Z,96957.16
2022-09-09T04:40:14.456Z,96963.50
2022-09-09T04:42:45.065Z,96967.00
2022-09-09T04:45:15.907Z,96966.19
2022-09-09T04:47:44.913Z,96968.03
2022-09-09T04:50:13.673Z,96968.03
2022-09-09T04:52:43.878Z,96965.34
2022-09-09T04:55:13.881Z,96958.38
2022-09-09T04:57:45.479Z,96979.72
2022-09-09T05:00:16.012Z,96965.91
2022-09-09T05:02:44.687Z,96971.25
2022-09-09T05:05:13.203Z,96967.13
2022-09-09T05:07:42.678Z,96982.94
2022-09-09T05:10:12.424Z,96980.28
2022-09-09T05:12:40.999Z,96983.94
2022-09-09T05:15:10.657Z,96979.44
2022-09-09T05:17:39.477Z,96976.97
2022-09-09T05:20:10.305Z,96988.47
2022-09-09T05:22:41.415Z,96996.47
2022-09-09T05:25:12.578Z,96988.66
2022-09-09T05:27:42.206Z,96996.66
2022-09-09T05:30:12.020Z,96996.66
2022-09-09T05:32:41.148Z,96999.31
2022-09-09T05:35:11.005Z,96999.50
2022-09-09T05:37:40.820Z,96994.19
2022-09-09T05:40:10.460Z,96993.34
2022-09-09T05:42:40.836Z,97001.34
2022-09-09T05:45:10.383Z,97000.72
2022-09-09T05:47:40.485Z,97008.72
2022-09-09T05:50:11.800Z,97006.19
2022-09-09T05:52:40.168Z,97008.88
2022-09-09T05:55:11.480Z,97008.72
2022-09-09T05:57:41.305Z,96998.03
2022-09-09T06:00:11.320Z,96986.69
2022-09-09T06:02:42.646Z,96986.69
2022-09-09T06:05:14.019Z,97001.69
2022-09-09T06:07:44.632Z,96988.53
2022-09-09T06:10:14.358Z,96995.72
2022-09-09T06:12:44.408Z,97004.53
2022-09-09T06:15:14.527Z,97003.72
2022-09-09T06:17:54.259Z,97020.72
2022-09-09T06:20:22.969Z,97012.72
2022-09-09T06:22:51.501Z,97027.91
2022-09-09T06:25:20.380Z,97042.25
2022-09-09T06:27:51.967Z,97051.09
2022-09-09T06:30:20.411Z,97059.28
2022-09-09T06:32:48.964Z,97066.47
2022-09-09T06:35:17.327Z,97058.47
2022-09-09T06:37:49.800Z,97059.28
2022-09-09T06:40:20.217Z,97069.50
2022-09-09T06:42:49.199Z,97056.81
2022-09-09T06:45:37.910Z,97055.97
2022-09-09T06:48:06.848Z,97062.69
2022-09-09T06:50:35.759Z,97064.16
2022-09-09T06:53:04.956Z,97067.47
2022-09-09T06:55:34.021Z,97076.50
2022-09-09T06:58:03.575Z,97057.63
2022-09-09T07:00:32.483Z,97058.47
2022-09-09T07:03:02.973Z,97065.63
2022-09-09T07:05:32.250Z,97066.47
2022-09-09T07:08:00.868Z,97064.63
2022-09-09T07:10:29.595Z,97067.28
2022-09-09T07:12:58.100Z,97069.13
2022-09-09T07:15:27.611Z,97061.31
2022-09-09T07:17:56.595Z,97071.97
2022-09-09T07:20:27.363Z,97062.13
2022-09-09T07:22:57.194Z,97066.66
2022-09-09T07:25:25.861Z,97049.81
2022-09-09T07:27:58.788Z,97046.50
2022-09-09T07:30:28.432Z,97053.50
2022-09-09T07:33:00.204Z,97048.16
2022-09-09T07:35:30.727Z,97048.97
2022-09-09T07:37:59.885Z,97053.31
2022-09-09T07:40:28.461Z,97055.97
2022-09-09T07:42:57.106Z,97055.16
2022-09-09T07:45:25.760Z,97055.16
2022-09-09T07:47:54.242Z,97051.84
2022-09-09T07:50:23.384Z,97062.69
2022-09-09T07:52:54.452Z,97064.34
2022-09-09T07:55:26.210Z,97061.69
2022-09-09T07:57:54.876Z,97055.31
2022-09-09T08:00:24.976Z,97065.81
2022-09-09T08:03:07.187Z,97055.31
2022-09-09T08:05:36.350Z,97052.66
2022-09-09T08:08:06.165Z,97052.66
2022-09-09T08:10:35.308Z,97072.16
2022-09-09T08:13:19.102Z,97093.50
2022-09-09T08:15:51.260Z,97102.16
2022-09-09T08:18:20.432Z,97093.31
2022-09-09T08:20:49.415Z,97106.50
2022-09-09T08:23:19.293Z,97111.81
2022-09-09T08:25:49.749Z,97111.81
2022-09-09T08:28:18.589Z,97110.34
2022-09-09T08:30:49.189Z,97105.00
2022-09-09T08:33:19.225Z,97120.66
2022-09-09T08:35:53.200Z,97117.16
2022-09-09T08:38:23.034Z,97107.31
2022-09-09T08:40:52.239Z,97101.16
2022-09-09T08:43:21.065Z,97105.47
2022-09-09T08:45:52.788Z,97107.13
2022-09-09T08:48:36.122Z,97104.47
2022-09-09T08:51:08.274Z,97110.63
2022-09-09T08:53:44.211Z,97100.78
2022-09-09T08:56:15.300Z,97101.44
2022-09-09T08:58:55.245Z,97090.75
2022-09-09T09:01:51.317Z,97080.91
2022-09-09T09:04:40.808Z,97065.09
2022-09-09T09:07:22.095Z,97092.13
2022-09-09T09:10:00.611Z,97097.09
2022-09-09T09:12:34.613Z,97108.28
2022-09-09T09:15:03.317Z,97107.25
2022-09-09T09:17:34.401Z,97103.78
2022-09-09T09:20:05.653Z,97092.91
2022-09-09T09:22:41.506Z,97082.88
2022-09-09T09:25:18.038Z,97089.06
2022-09-09T09:27:52.563Z,97090.34
2022-09-09T09:30:29.857Z,97082.34
2022-09-09T09:33:05.124Z,97086.19
2022-09-09T09:35:38.555Z,97081.69
2022-09-09T09:41:08.860Z,97077.19
2022-09-09T09:43:43.392Z,97075.16
2022-09-09T09:46:25.152Z,97077.63
2022-09-09T09:48:59.903Z,97072.94
2022-09-09T09:51:30.928Z,97083.44
2022-09-09T09:54:10.583Z,97071.94
2022-09-09T09:56:42.574Z,97075.44
2022-09-09T09:59:38.681Z,97079.56
2022-09-09T10:02:25.712Z,97067.88
2022-09-09T10:07:38.435Z,97070.84
2022-09-09T10:10:12.645Z,97070.84
2022-09-09T10:12:49.726Z,97073.50
2022-09-09T10:15:29.350Z,97073.88
2022-09-09T10:18:05.674Z,97069.53
2022-09-09T10:20:38.563Z,97067.53
2022-09-09T10:23:19.902Z,97070.84
2022-09-09T10:26:14.859Z,97065.50
2022-09-09T10:28:57.673Z,97061.81
2022-09-09T10:31:32.559Z,97067.97
2022-09-09T10:34:08.998Z,97061.41
2022-09-09T10:36:41.586Z,97075.41
2022-09-09T10:39:18.942Z,97075.41
2022-09-09T10:41:56.832Z,97071.72
2022-09-09T10:44:46.838Z,97074.38
2022-09-09T10:47:33.855Z,97068.59
2022-09-09T10:50:24.328Z,97064.06
2022-09-09T10:53:00.543Z,97060.84
2022-09-09T10:55:37.965Z,97054.31
2022-09-09T10:58:08.475Z,97055.78
2022-09-09T11:00:40.996Z,97057.25
2022-09-09T11:03:18.105Z,97064.25
2022-09-09T11:05:49.630Z,97053.56
2022-09-09T11:08:20.708Z,97051.09
2022-09-09T11:10:59.666Z,97052.94
2022-09-09T11:13:34.772Z,97049.25
2022-09-09T11:16:18.700Z,97052.56
2022-09-09T11:18:48.707Z,97054.84
2022-09-09T11:21:24.267Z,97052.00
2022-09-09T11:23:56.653Z,97050.16
2022-09-09T11:26:33.126Z,97049.13
2022-09-09T11:29:25.282Z,97052.19
2022-09-09T11:32:03.895Z,97056.50
2022-09-09T11:34:41.883Z,97051.81
2022-09-09T11:37:27.591Z,97048.13
2022-09-09T11:40:17.234Z,97041.13
2022-09-09T11:42:48.269Z,97046.75
2022-09-09T11:45:26.775Z,97044.06
2022-09-09T11:47:56.913Z,97039.56
2022-09-09T11:50:46.954Z,97038.72
2022-09-09T11:53:23.735Z,97045.72
2022-09-09T11:56:11.737Z,97047.75
2022-09-09T11:58:48.080Z,97050.06
2022-09-09T12:01:38.672Z,97057.03
2022-09-09T12:04:29.845Z,97051.88
2022-09-09T12:07:01.281Z,97052.72
2022-09-09T12:09:34.454Z,97056.03
2022-09-09T12:12:24.366Z,97051.72
2022-09-09T12:15:30.851Z,97046.38
2022-09-09T12:18:05.806Z,97041.84
2022-09-09T12:20:47.617Z,97040.84
2022-09-09T12:23:48.354Z,97041.28
2022-09-09T12:26:37.120Z,97045.44
2022-09-09T12:29:16.271Z,97033.53
2022-09-09T12:31:58.801Z,97033.53
2022-09-09T12:34:36.917Z,97030.88
2022-09-09T12:37:15.257Z,97030.88
2022-09-09T12:39:48.069Z,97020.19
2022-09-09T12:42:19.376Z,97016.50
2022-09-09T12:45:43.893Z,97006.81
2022-09-09T12:48:46.173Z,97011.16
2022-09-09T12:51:20.694Z,97011.16
2022-09-09T12:53:57.964Z,97015.47
2022-09-09T12:56:30.747Z,97003.78
2022-09-09T12:58:59.992Z,97008.94
2022-09-09T13:01:30.293Z,96998.88
2022-09-09T13:04:05.342Z,97004.03
2022-09-09T13:06:40.974Z,96997.69
2022-09-09T13:09:11.157Z,96998.34
2022-09-09T13:11:43.183Z,96990.31
2022-09-09T13:14:19.303Z,96993.00
2022-09-09T13:16:56.994Z,96992.16
2022-09-09T13:19:28.827Z,96979.63
2022-09-09T13:21:57.360Z,96979.44
2022-09-09T13:24:30.610Z,96971.25
2022-09-09T13:27:00.012Z,96970.88
2022-09-09T13:29:28.379Z,96968.19
2022-09-09T13:32:07.119Z,96965.53
2022-09-09T13:34:37.538Z,96961.19
2022-09-09T13:37:08.040Z,96959.34
2022-09-09T13:39:38.320Z,96960.19
2022-09-09T13:42:08.431Z,96951.34
2022-09-09T13:44:38.975Z,96944.59
2022-09-09T13:47:17.910Z,96939.69
2022-09-09T13:49:47.960Z,96940.13
2022-09-09T13:52:18.201Z,96931.09
2022-09-09T13:54:49.805Z,96930.06
2022-09-09T13:57:19.831Z,96930.91
2022-09-09T14:00:07.949Z,96923.91
2022-09-09T14:02:50.486Z,96919.56
2022-09-09T14:05:23.166Z,96916.72
2022-09-09T14:08:06.356Z,96916.50
2022-09-09T14:10:39.185Z,96906.84
2022-09-09T14:13:09.170Z,96911.16
2022-09-09T14:15:37.620Z,96906.66
2022-09-09T14:18:07.249Z,96925.16
2022-09-09T14:20:38.119Z,96921.66
2022-09-09T14:23:06.548Z,96925.16
2022-09-09T14:25:56.414Z,96926.00
2022-09-09T14:31:23.042Z,96943.06
2022-09-09T14:33:58.006Z,96941.19
2022-09-09T14:36:35.125Z,96943.06
2022-09-09T14:39:14.261Z,96941.19
2022-09-09T14:41:46.530Z,96941.41
2022-09-09T14:44:25.454Z,96940.56
2022-09-09T14:47:04.615Z,96929.06
2022-09-09T14:49:47.172Z,96940.75
2022-09-09T14:52:25.782Z,96945.09
2022-09-09T14:54:59.263Z,96952.09
2022-09-09T14:57:29.633Z,96952.91
2022-09-09T14:59:58.176Z,96947.56
2022-09-09T15:02:29.934Z,96948.59
2022-09-09T15:05:03.253Z,96951.44
2022-09-09T15:07:35.181Z,96952.09
2022-09-09T15:10:12.503Z,96947.75
2022-09-09T15:12:44.755Z,96948.59
2022-09-09T15:15:15.350Z,96942.59
2022-09-09T15:17:44.416Z,96942.59
2022-09-09T15:20:12.881Z,96942.59
2022-09-09T15:22:43.050Z,96930.25
2022-09-09T15:25:11.692Z,96925.94
2022-09-09T15:27:40.108Z,96905.38
2022-09-09T15:30:10.081Z,96890.81
2022-09-09T15:32:39.509Z,96883.44
2022-09-09T15:35:08.893Z,96879.50
2022-09-09T15:37:37.309Z,96885.28
2022-09-09T15:40:08.348Z,96880.56
2022-09-09T15:42:36.802Z,96885.53
2022-09-09T15:45:06.957Z,96893.34
2022-09-09T15:47:45.253Z,96904.88
2022-09-09T15:50:21.911Z,96897.69
2022-09-09T15:52:57.966Z,96902.84
2022-09-09T15:55:33.673Z,96919.50
2022-09-09T15:58:02.548Z,96921.34
2022-09-09T16:00:37.195Z,96925.88
2022-09-09T16:03:07.769Z,96925.69
2022-09-09T16:05:48.058Z,96932.50
2022-09-09T16:08:23.222Z,96928.78
2022-09-09T16:11:11.523Z,96941.78
2022-09-09T16:13:41.193Z,96939.94
2022-09-09T16:16:09.968Z,96944.00
2022-09-09T16:18:43.920Z,96943.19
2022-09-09T16:21:16.801Z,96942.34
2022-09-09T16:23:45.545Z,96950.56
2022-09-09T16:26:17.231Z,96946.25
2022-09-09T16:28:49.261Z,96955.28
2022-09-09T16:31:27.264Z,96958.97
2022-09-09T16:34:01.569Z,96951.97
2022-09-09T16:36:35.086Z,96959.16
2022-09-09T16:39:12.544Z,96962.03
2022-09-09T16:41:52.642Z,96965.72
2022-09-09T16:44:28.518Z,96960.38
2022-09-09T16:47:14.347Z,96962.41
2022-09-09T16:50:13.960Z,96955.41
2022-09-09T16:53:02.889Z,96949.25
2022-09-09T16:55:31.481Z,96946.75
2022-09-09T16:58:12.834Z,96949.44
2022-09-09T17:00:43.463Z,96950.25
2022-09-09T17:03:18.841Z,96963.81
2022-09-09T17:05:52.799Z,96998.56
2022-09-09T17:08:22.374Z,97013.97
2022-09-09T17:10:51.016Z,97016.22
2022-09-09T17:13:21.349Z,97009.41
2022-09-09T17:15:49.937Z,97000.97
2022-09-09T17:18:18.487Z,96995.44
2022-09-09T17:20:47.479Z,96993.31
2022-09-09T17:23:16.377Z,96995.16
2022-09-09T17:25:46.872Z,96992.50
2022-09-09T17:28:16.345Z,96990.28
2022-09-09T17:30:46.210Z,96997.47
2022-09-09T17:33:14.709Z,96983.06
2022-09-09T17:35:45.963Z,96989.25
2022-09-09T17:38:14.542Z,96991.09
2022-09-09T17:40:43.781Z,96991.94
2022-09-09T17:43:12.495Z,96992.94
2022-09-09T17:45:41.019Z,96998.09
2022-09-09T17:48:10.907Z,96997.28
2022-09-09T17:50:39.343Z,96997.66
2022-09-09T17:53:07.759Z,96998.47
2022-09-09T17:55:36.345Z,96992.31
2022-09-09T17:58:04.821Z,97005.47
2022-09-09T18:00:33.352Z,97000.97
2022-09-09T18:03:02.289Z,96998.28
2022-09-09T18:05:32.553Z,97000.13
2022-09-09T18:08:02.871Z,96993.78
2022-09-09T18:10:32.916Z,97000.13
2022-09-09T18:13:03.056Z,97000.13
2022-09-09T18:15:49.122Z,97002.81
2022-09-09T18:18:18.354Z,97007.50
2022-09-09T18:20:48.544Z,97019.84
2022-09-09T18:23:20.258Z,97027.88
2022-09-09T18:25:49.861Z,97036.72
2022-09-09T18:28:20.196Z,97020.88
2022-09-09T18:30:50.530Z,97017.56
2022-09-09T18:33:18.940Z,97022.09
2022-09-09T18:35:48.686Z,97033.41
2022-09-09T18:38:17.632Z,97036.91
2022-09-09T18:40:46.071Z,97042.25
2022-09-09T18:43:14.998Z,97041.22
2022-09-09T18:45:44.368Z,97048.63
2022-09-09T18:48:12.785Z,97054.78
2022-09-09T18:50:45.429Z,97056.63
2022-09-09T18:53:21.010Z,97069.81
2022-09-09T18:55:59.257Z,97080.03
2022-09-09T18:58:27.633Z,97080.41
2022-09-09T19:00:56.740Z,97079.41
2022-09-09T19:03:25.929Z,97081.88
2022-09-09T19:05:54.529Z,97077.38
2022-09-09T19:08:24.807Z,97082.72
2022-09-09T19:10:53.345Z,97091.94
2022-09-09T19:13:21.795Z,97083.47
2022-09-09T19:15:50.454Z,97087.78
2022-09-09T19:18:18.987Z,97101.16
2022-09-09T19:20:47.502Z,97097.66
2022-09-09T19:23:16.159Z,97103.44
2022-09-09T19:25:46.163Z,97109.34
2022-09-09T19:28:24.418Z,97110.38
2022-09-09T19:31:06.467Z,97113.22
2022-09-09T19:33:40.295Z,97113.22
2022-09-09T19:36:09.366Z,97108.03
2022-09-09T19:38:38.598Z,97099.88
2022-09-09T19:41:11.540Z,97111.38
2022-09-09T19:43:40.604Z,97111.19
2022-09-09T19:46:11.607Z,97111.38
2022-09-09T19:48:41.776Z,97100.03
2022-09-09T19:51:12.291Z,97110.91
2022-09-09T19:53:42.399Z,97114.59
2022-09-09T19:56:13.390Z,97107.41
2022-09-09T19:58:42.896Z,97100.22
2022-09-09T20:01:12.827Z,97100.41
2022-09-09T20:03:42.955Z,97122.16
2022-09-09T20:06:13.270Z,97125.84
2022-09-09T20:08:42.049Z,97113.31
2022-09-09T20:11:11.894Z,97126.66
2022-09-09T20:13:40.809Z,97116.16
2022-09-09T20:16:11.372Z,97107.31
2022-09-09T20:18:43.762Z,97115.34
2022-09-09T20:21:14.896Z,97111.66
2022-09-09T20:23:43.878Z,97111.84
2022-09-09T20:26:17.452Z,97105.66
2022-09-09T20:28:46.970Z,97098.84
2022-09-09T20:31:16.946Z,97105.84
2022-09-09T20:33:45.603Z,97112.03
2022-09-09T20:36:15.820Z,97110.38
2022-09-09T20:38:45.354Z,97119.84
2022-09-09T20:41:18.592Z,97120.03
2022-09-09T20:43:48.902Z,97115.72
2022-09-09T20:46:18.842Z,97123.72
2022-09-09T20:48:47.896Z,97127.22
2022-09-09T20:51:17.288Z,97124.56
2022-09-09T20:53:45.636Z,97126.75
2022-09-09T20:56:16.831Z,97128.41
2022-09-09T20:58:48.181Z,97128.41
2022-09-09T21:01:18.982Z,97133.13
2022-09-09T21:03:47.483Z,97130.63
2022-09-09T21:06:17.130Z,97131.00
2022-09-09T21:08:45.878Z,97136.53
2022-09-09T21:11:17.163Z,97125.03
2022-09-09T21:13:45.731Z,97127.50
2022-09-09T21:16:16.593Z,97126.31
2022-09-09T21:18:45.217Z,97121.97
2022-09-09T21:21:15.185Z,97128.97
2022-09-09T21:23:44.186Z,97123.00
2022-09-09T21:26:12.942Z,97123.81
2022-09-09T21:28:42.652Z,97124.84
2022-09-09T21:31:15.002Z,97137.38
2022-09-09T21:33:43.534Z,97137.38
2022-09-09T21:36:12.537Z,97140.22
2022-09-09T21:38:41.783Z,97139.38
2022-09-09T21:41:13.301Z,97137.53
2022-09-09T21:43:43.511Z,97140.41
2022-09-09T21:46:13.929Z,97140.41
2022-09-09T21:48:42.503Z,97139.56
2022-09-09T21:51:14.339Z,97129.91
2022-09-09T21:53:43.360Z,97127.41
2022-09-09T21:56:13.949Z,97131.09
2022-09-09T21:58:43.631Z,97133.78
2022-09-09T22:01:12.903Z,97136.44
2022-09-09T22:03:42.421Z,97138.28
2022-09-09T22:06:13.927Z,97147.94
2022-09-09T22:08:42.707Z,97156.16
2022-09-09T22:11:13.932Z,97158.00
2022-09-09T22:13:44.735Z,97159.84
2022-09-09T22:16:15.228Z,97155.50
2022-09-09T22:21:13.476Z,97148.69
2022-09-09T22:23:41.961Z,97152.38
2022-09-09T22:26:10.489Z,97162.22
2022-09-09T22:28:39.500Z,97156.06
2022-09-09T22:31:09.459Z,97157.91
2022-09-09T22:33:37.851Z,97159.75
2022-09-09T22:36:06.590Z,97161.41
2022-09-09T22:38:35.255Z,97147.41
2022-09-09T22:41:04.403Z,97154.59
2022-09-09T22:43:33.974Z,97161.75
2022-09-09T22:46:02.934Z,97156.41
2022-09-09T22:48:34.852Z,97160.75
2022-09-09T22:51:04.450Z,97153.75
2022-09-09T22:53:33.816Z,97165.44
2022-09-09T22:56:03.741Z,97163.59
2022-09-09T22:58:33.849Z,97160.09
2022-09-09T23:01:02.207Z,97166.47
2022-09-09T23:03:33.155Z,97169.13
2022-09-09T23:06:04.081Z,97169.50
2022-09-09T23:08:34.683Z,97168.47
2022-09-09T23:11:08.943Z,97161.47
2022-09-09T23:13:38.841Z,97165.34
2022-09-09T23:16:11.403Z,97167.00
2022-09-09T23:18:40.516Z,97165.53
2022-09-09T23:21:11.412Z,97152.19
2022-09-09T23:23:41.231Z,97162.03
2022-09-09T23:26:11.176Z,97155.25
2022-09-09T23:28:42.377Z,97159.56
2022-09-09T23:31:11.993Z,97156.91
2022-09-09T23:33:40.899Z,97160.78
2022-09-09T23:36:14.012Z,97165.09
2022-09-09T23:38:44.312Z,97156.25
2022-09-09T23:41:14.870Z,97163.44
2022-09-09T23:43:45.050Z,97161.13
2022-09-09T23:46:15.627Z,97157.63
2022-09-09T23:48:44.199Z,97160.31
2022-09-09T23:51:17.498Z,97166.47
2022-09-09T23:53:50.746Z,97167.31
2022-09-09T23:56:20.381Z,97160.47
2022-09-09T23:58:48.896Z,97154.50
